Pagrindinis puslapis
METAR-TAF:

METAR-TAF

Oro uostai :

Tokatas, Turkija

platuma: 40-18N, ilguma: 036-34E, Aukštis: 608 m

METAR: trūkstamas

Laikas: 23:38 (20:38 UTC)

Prognozė

Ataskaita buvo paskelbta 6 valandos ir 58 minutes, ne 13:40 UTC
Prognozė galioja nuo 15 metu 15 UTC su 15 metu 24 UTC
Vėjas 7 kt iš Pietų/Pietryčių
Matomumas 10 km arba daugiau
Išsisklaidę debesys ne aukštis 4000 ft
Su prošvaistėmis ne aukštis 9000 ft
Laikinai
nuo 15 metu 16 UTC su 15 metu 20 UTC
Su prošvaistėmis ne aukštis 3500 ft

TAF: LTAW 151340Z 1515/1524 15007KT 9999 SCT040 BKN090 TEMPO 1516/1520 BKN035

Orai ataskaitas ir orų prognozės (METAR, TAF).

turimą stotys yra geltonos ir raudonos taškus žemėlapyje.

Perkelti pele per norėdami pamatyti stoties vardą.

Tada spustelėkite, norėdami matyti oro stebėjimo ir prognozės.

Norėdami pakeisti žemėlapį: spustelėkite ant žalios mygtukų su juodo kryžiaus žemyn,; žalią mygtuką su brūkšneliu, jei norite nutolinti; arba žalių rodyklių gretimoms žemėlapius.


METAR-TAF: